createdAt,value
2022-08-21T00:03:42.360Z,1017.54
2022-08-21T00:13:19.980Z,1017.52
2022-08-21T00:22:57.033Z,1017.44
2022-08-21T00:32:34.300Z,1017.29
2022-08-21T00:51:47.987Z,1017.14
2022-08-21T01:01:25.252Z,1017.31
2022-08-21T01:11:02.230Z,1017.3
2022-08-21T01:20:39.001Z,1017.42
2022-08-21T01:30:15.669Z,1017.46
2022-08-21T01:49:29.735Z,1017.42
2022-08-21T01:59:07.114Z,1017.49
2022-08-21T02:08:44.599Z,1017.48
2022-08-21T02:18:21.529Z,1017.56
2022-08-21T02:27:58.703Z,1017.54
2022-08-21T02:37:35.465Z,1017.49
2022-08-21T02:47:12.602Z,1017.51
2022-08-21T03:06:26.358Z,1017.47
2022-08-21T03:16:04.161Z,1017.52
2022-08-21T03:25:41.192Z,1017.48
2022-08-21T03:35:18.139Z,1017.56
2022-08-21T03:44:55.403Z,1017.51
2022-08-21T03:54:32.238Z,1017.62
2022-08-21T04:04:09.877Z,1017.72
2022-08-21T04:13:47.440Z,1017.86
2022-08-21T04:23:25.115Z,1017.92
2022-08-21T04:33:02.272Z,1017.96
2022-08-21T04:42:39.533Z,1017.98
2022-08-21T04:52:16.719Z,1018.08
2022-08-21T05:01:54.198Z,1018.13
2022-08-21T05:11:31.742Z,1018.06
2022-08-21T05:21:09.223Z,1018.08
2022-08-21T05:30:47.012Z,1018.11
2022-08-21T05:40:24.920Z,1018.2
2022-08-21T05:50:02.109Z,1018.21
2022-08-21T05:59:39.700Z,1018.19
2022-08-21T06:09:17.405Z,1018.22
2022-08-21T06:18:56.681Z,1018.25
2022-08-21T06:28:32.167Z,1018.24
2022-08-21T06:38:10.280Z,1018.25
2022-08-21T06:47:48.168Z,1018.19
2022-08-21T06:57:25.920Z,1018.21
2022-08-21T07:07:04.597Z,1018.22
2022-08-21T07:16:43.607Z,1018.1
2022-08-21T07:26:22.891Z,1018.03
2022-08-21T07:55:16.225Z,1017.8
2022-08-21T08:04:54.663Z,1017.77
2022-08-21T08:14:31.728Z,1017.76
2022-08-21T08:24:18.630Z,1017.79
2022-08-21T08:33:46.938Z,1017.71
2022-08-21T08:43:24.846Z,1017.75
2022-08-21T08:53:02.756Z,1017.69
2022-08-21T09:02:41.009Z,1017.64
2022-08-21T09:12:19.163Z,1017.62
2022-08-21T09:21:59.788Z,1017.51
2022-08-21T09:31:38.672Z,1017.48
2022-08-21T09:50:57.345Z,1017.26
2022-08-21T10:00:47.398Z,1017.33
2022-08-21T10:10:30.137Z,1017.18
2022-08-21T10:20:13.813Z,1016.93
2022-08-21T10:29:57.320Z,1016.8
2022-08-21T10:39:37.033Z,1016.74
2022-08-21T10:49:14.737Z,1016.63
2022-08-21T10:58:44.825Z,1016.55
2022-08-21T11:08:27.591Z,1016.44
2022-08-21T11:18:12.286Z,1016.42
2022-08-21T11:27:52.693Z,1016.22
2022-08-21T11:37:37.333Z,1016.03
2022-08-21T11:47:15.796Z,1015.98
2022-08-21T11:56:36.082Z,1016
2022-08-21T12:15:36.524Z,1015.87
2022-08-21T12:25:10.210Z,1015.89
2022-08-21T12:35:00.867Z,1015.9
2022-08-21T12:44:55.684Z,1015.76
2022-08-21T13:04:20.865Z,1015.28
2022-08-21T13:14:01.203Z,1015.08
2022-08-21T13:23:20.688Z,1015.12
2022-08-21T13:32:52.926Z,1015.15
2022-08-21T13:42:35.294Z,1015.19
2022-08-21T13:52:16.513Z,1015.03
2022-08-21T14:01:49.647Z,1014.99
2022-08-21T14:11:37.641Z,1014.95
2022-08-21T14:50:08.569Z,1014.84
2022-08-21T15:09:21.508Z,1014.73
2022-08-21T15:18:57.070Z,1014.75
2022-08-21T15:28:26.125Z,1014.68
2022-08-21T15:37:55.322Z,1014.78
2022-08-21T15:47:28.656Z,1014.61
2022-08-21T15:57:05.252Z,1014.52
2022-08-21T16:06:54.553Z,1014.59
2022-08-21T16:16:14.437Z,1014.52
2022-08-21T16:25:49.354Z,1014.55
2022-08-21T16:35:24.445Z,1014.7
2022-08-21T16:54:37.218Z,1014.6
2022-08-21T17:04:13.906Z,1014.55
2022-08-21T17:13:50.576Z,1014.6
2022-08-21T17:23:27.348Z,1014.71
2022-08-21T17:33:04.140Z,1014.76
2022-08-21T17:42:40.957Z,1014.82
2022-08-21T17:52:16.845Z,1014.98
2022-08-21T18:01:53.512Z,1015.09
2022-08-21T18:11:30.752Z,1015.09
2022-08-21T18:21:06.847Z,1015.27
2022-08-21T18:30:42.974Z,1015.5
2022-08-21T18:49:55.372Z,1015.7
2022-08-21T19:18:44.117Z,1015.97
2022-08-21T19:28:20.566Z,1015.98
2022-08-21T19:57:10.018Z,1016.24
2022-08-21T20:06:46.520Z,1016.3
2022-08-21T20:16:23.165Z,1016.32
2022-08-21T20:25:59.803Z,1016.4
2022-08-21T20:45:13.682Z,1016.41
2022-08-21T20:54:50.449Z,1016.42
2022-08-21T21:04:27.313Z,1016.4
2022-08-21T21:14:05.154Z,1016.42
2022-08-21T21:23:41.240Z,1016.48
2022-08-21T21:33:17.966Z,1016.56
2022-08-21T21:52:31.955Z,1016.69
2022-08-21T22:02:09.022Z,1016.62
2022-08-21T22:11:45.924Z,1016.91
2022-08-21T22:30:59.758Z,1016.95
2022-08-21T22:40:36.533Z,1016.99
2022-08-21T22:59:50.820Z,1017.1
2022-08-21T23:09:28.144Z,1017.08
2022-08-21T23:28:43.723Z,1017.01
2022-08-21T23:38:19.535Z,1017.06
2022-08-21T23:47:56.052Z,1017.03
2022-08-21T23:57:33.065Z,1017.07
